createdAt,value
2024-01-11T00:02:56.490Z,8.85
2024-01-11T00:05:59.255Z,10.80
2024-01-11T00:09:01.895Z,6.22
2024-01-11T00:12:04.666Z,6.57
2024-01-11T00:15:08.089Z,7.78
2024-01-11T00:18:12.507Z,7.10
2024-01-11T00:21:16.882Z,6.13
2024-01-11T00:24:20.140Z,7.65
2024-01-11T00:27:22.395Z,6.43
2024-01-11T00:30:25.466Z,5.60
2024-01-11T00:33:34.660Z,7.72
2024-01-11T00:36:39.924Z,7.43
2024-01-11T00:39:44.722Z,6.60
2024-01-11T00:42:48.060Z,5.03
2024-01-11T00:45:52.144Z,6.20
2024-01-11T00:48:59.579Z,6.50
2024-01-11T00:52:01.851Z,5.37
2024-01-11T00:55:04.634Z,6.50
2024-01-11T00:58:07.187Z,6.75
2024-01-11T01:01:12.752Z,6.63
2024-01-11T01:04:15.537Z,8.82
2024-01-11T01:07:18.231Z,5.53
2024-01-11T01:10:20.876Z,5.72
2024-01-11T01:13:23.255Z,7.35
2024-01-11T01:16:25.917Z,9.45
2024-01-11T01:19:28.256Z,8.38
2024-01-11T01:22:30.904Z,4.80
2024-01-11T01:25:36.409Z,7.87
2024-01-11T01:28:39.243Z,6.80
2024-01-11T01:31:41.787Z,8.03
2024-01-11T01:34:47.166Z,7.43
2024-01-11T01:37:51.214Z,8.20
2024-01-11T01:41:04.536Z,7.93
2024-01-11T01:44:09.992Z,6.30
2024-01-11T01:47:13.566Z,6.55
2024-01-11T01:50:16.437Z,8.07
2024-01-11T01:53:24.773Z,8.50
2024-01-11T01:56:28.667Z,7.18
2024-01-11T01:59:32.497Z,5.72
2024-01-11T02:02:36.360Z,6.80
2024-01-11T02:05:40.001Z,6.60
2024-01-11T02:08:45.032Z,5.87
2024-01-11T02:11:48.411Z,6.87
2024-01-11T02:14:51.436Z,7.80
2024-01-11T02:17:54.292Z,6.00
2024-01-11T02:20:57.888Z,4.82
2024-01-11T02:24:07.696Z,5.70
2024-01-11T02:27:12.117Z,6.35
2024-01-11T02:30:15.331Z,6.10
2024-01-11T02:33:20.179Z,7.40
2024-01-11T02:36:23.171Z,6.15
2024-01-11T02:39:27.438Z,5.78
2024-01-11T02:42:29.996Z,4.15
2024-01-11T02:45:32.629Z,6.87
2024-01-11T02:48:34.946Z,6.60
2024-01-11T02:51:37.894Z,5.45
2024-01-11T02:54:40.441Z,5.67
2024-01-11T02:57:43.043Z,7.90
2024-01-11T03:00:45.527Z,6.50
2024-01-11T03:03:50.821Z,7.63
2024-01-11T03:06:54.950Z,5.57
2024-01-11T03:09:57.811Z,7.72
2024-01-11T03:13:01.159Z,6.40
2024-01-11T03:16:04.617Z,6.50
2024-01-11T03:19:07.953Z,7.10
2024-01-11T03:22:10.674Z,6.68
2024-01-11T03:25:13.169Z,7.70
2024-01-11T03:28:16.270Z,5.80
2024-01-11T03:31:18.845Z,6.00
2024-01-11T03:34:21.625Z,8.60
2024-01-11T03:37:24.138Z,6.22
2024-01-11T03:40:26.587Z,7.15
2024-01-11T03:43:29.108Z,3.80
2024-01-11T03:46:31.370Z,5.00
2024-01-11T03:49:33.946Z,6.75
2024-01-11T03:52:36.541Z,7.05
2024-01-11T03:55:38.785Z,4.93
2024-01-11T03:58:43.066Z,6.20
2024-01-11T04:01:45.795Z,5.78
2024-01-11T04:04:48.315Z,5.53
2024-01-11T04:07:50.807Z,7.65
2024-01-11T04:10:53.011Z,7.20
2024-01-11T04:13:55.587Z,5.47
2024-01-11T04:16:58.097Z,5.68
2024-01-11T04:20:00.769Z,4.72
2024-01-11T04:23:03.240Z,4.37
2024-01-11T04:26:05.868Z,5.53
2024-01-11T04:29:08.508Z,4.85
2024-01-11T04:32:10.843Z,5.75
2024-01-11T04:35:13.524Z,5.17
2024-01-11T04:38:15.773Z,7.78
2024-01-11T04:41:18.367Z,4.68
2024-01-11T04:44:21.076Z,6.00
2024-01-11T04:47:23.760Z,6.25
2024-01-11T04:50:26.492Z,4.90
2024-01-11T04:53:29.069Z,6.90
2024-01-11T04:56:31.516Z,9.80
2024-01-11T04:59:33.926Z,7.30
2024-01-11T05:02:36.698Z,7.40
2024-01-11T05:05:39.091Z,5.33
2024-01-11T05:08:41.811Z,10.25
2024-01-11T05:11:44.489Z,9.48
2024-01-11T05:14:47.063Z,7.80
2024-01-11T05:17:49.568Z,7.03
2024-01-11T05:20:52.329Z,5.75
2024-01-11T05:23:54.632Z,6.20
2024-01-11T05:26:56.907Z,6.80
2024-01-11T05:29:59.136Z,3.70
2024-01-11T05:33:01.554Z,5.07
2024-01-11T05:36:04.501Z,5.60
2024-01-11T05:39:07.366Z,5.28
2024-01-11T05:42:09.905Z,7.85
2024-01-11T05:45:12.102Z,5.90
2024-01-11T05:48:20.605Z,5.03
2024-01-11T05:51:23.198Z,6.03
2024-01-11T05:54:27.917Z,4.05
2024-01-11T05:57:30.427Z,6.57
2024-01-11T06:00:33.132Z,4.55
2024-01-11T06:03:36.092Z,6.37
2024-01-11T06:06:38.569Z,7.47
2024-01-11T06:09:41.160Z,6.25
2024-01-11T06:12:43.753Z,8.15
2024-01-11T06:15:46.259Z,6.65
2024-01-11T06:18:48.710Z,7.03
2024-01-11T06:21:52.366Z,5.80
2024-01-11T06:24:54.771Z,5.65
2024-01-11T06:27:56.968Z,5.53
2024-01-11T06:30:59.541Z,6.55
2024-01-11T06:34:01.899Z,5.65
2024-01-11T06:37:04.555Z,5.37
2024-01-11T06:40:09.491Z,7.28
2024-01-11T06:43:12.797Z,4.60
2024-01-11T06:46:20.513Z,7.07
2024-01-11T06:49:22.802Z,7.43
2024-01-11T06:52:25.301Z,8.02
2024-01-11T06:55:27.647Z,8.57
2024-01-11T06:58:30.527Z,10.30
2024-01-11T07:01:33.073Z,9.48
2024-01-11T07:04:36.146Z,9.73
2024-01-11T07:07:38.711Z,7.17
2024-01-11T07:10:41.260Z,6.62
2024-01-11T07:13:44.541Z,4.85
2024-01-11T07:16:46.764Z,6.18
2024-01-11T07:19:49.385Z,13.15
2024-01-11T07:22:51.880Z,7.37
2024-01-11T07:25:54.575Z,8.50
2024-01-11T07:28:57.235Z,7.53
2024-01-11T07:31:59.756Z,4.43
2024-01-11T07:35:02.074Z,9.40
2024-01-11T07:38:06.265Z,7.97
2024-01-11T07:41:08.507Z,5.18
2024-01-11T07:44:11.125Z,3.25
2024-01-11T07:47:13.765Z,4.47
2024-01-11T07:50:16.551Z,6.80
2024-01-11T07:53:19.168Z,3.78
2024-01-11T07:56:21.904Z,12.13
2024-01-11T07:59:24.267Z,1.63
2024-01-11T08:02:26.952Z,4.72
2024-01-11T08:05:29.526Z,9.77
2024-01-11T08:08:32.088Z,11.37
2024-01-11T08:11:37.151Z,4.55
2024-01-11T08:14:43.270Z,6.03
2024-01-11T08:17:48.702Z,6.30
2024-01-11T08:20:51.967Z,5.93
2024-01-11T08:23:54.577Z,7.57
2024-01-11T08:26:57.105Z,8.43
2024-01-11T08:30:01.811Z,5.03
2024-01-11T08:33:05.374Z,6.62
2024-01-11T08:36:08.511Z,9.15
2024-01-11T08:39:12.817Z,6.73
2024-01-11T08:42:16.668Z,8.60
2024-01-11T08:45:23.306Z,4.20
2024-01-11T08:48:26.192Z,7.32
2024-01-11T08:51:28.499Z,7.62
2024-01-11T08:54:31.019Z,8.77
2024-01-11T08:57:33.591Z,12.43
2024-01-11T09:00:35.810Z,13.30
2024-01-11T09:03:38.800Z,10.82
2024-01-11T09:06:41.577Z,10.35
2024-01-11T09:09:50.932Z,14.25
2024-01-11T09:12:58.847Z,12.05
2024-01-11T09:16:01.437Z,14.95
2024-01-11T09:19:04.130Z,14.15
2024-01-11T09:22:07.017Z,12.68
2024-01-11T09:25:09.926Z,13.13
2024-01-11T09:28:12.210Z,13.27
2024-01-11T09:31:14.524Z,13.55
2024-01-11T09:34:17.107Z,10.60
2024-01-11T09:37:19.708Z,15.13
2024-01-11T09:40:22.386Z,10.77
2024-01-11T09:43:25.141Z,14.23
2024-01-11T09:46:29.407Z,9.18
2024-01-11T09:49:32.246Z,12.40
2024-01-11T09:52:36.662Z,10.88
2024-01-11T09:55:39.890Z,9.67
2024-01-11T09:58:53.568Z,9.50
2024-01-11T10:01:56.098Z,10.02
2024-01-11T10:04:58.279Z,10.13
2024-01-11T10:08:00.515Z,7.07
2024-01-11T10:11:04.390Z,7.72
2024-01-11T10:14:06.784Z,13.95
2024-01-11T10:17:10.361Z,12.00
2024-01-11T10:20:17.104Z,13.88
2024-01-11T10:23:19.944Z,10.70
2024-01-11T10:26:23.010Z,10.43
2024-01-11T10:29:32.742Z,8.65
2024-01-11T10:32:38.432Z,9.15
2024-01-11T10:35:40.709Z,12.85
2024-01-11T10:38:46.165Z,12.30
2024-01-11T10:41:53.700Z,10.95
2024-01-11T10:44:57.252Z,9.43
2024-01-11T10:48:06.151Z,9.43
2024-01-11T10:51:13.935Z,11.12
2024-01-11T10:54:17.368Z,12.37
2024-01-11T10:57:20.028Z,11.43
2024-01-11T11:00:24.073Z,10.80
2024-01-11T11:03:27.096Z,11.05
2024-01-11T11:06:31.232Z,7.62
2024-01-11T11:09:36.318Z,6.33
2024-01-11T11:12:40.366Z,8.50
2024-01-11T11:15:48.349Z,9.82
2024-01-11T11:18:55.413Z,9.50
2024-01-11T11:21:57.666Z,9.38
2024-01-11T11:25:27.234Z,12.07
2024-01-11T11:28:29.978Z,11.40
2024-01-11T11:31:58.943Z,13.07
2024-01-11T11:35:01.561Z,11.25
2024-01-11T11:38:04.709Z,9.98
2024-01-11T11:41:08.504Z,9.20
2024-01-11T11:44:14.149Z,9.15
2024-01-11T11:47:24.679Z,7.57
2024-01-11T11:50:28.132Z,8.88
2024-01-11T11:53:37.762Z,5.20
2024-01-11T11:56:40.475Z,9.33
2024-01-11T11:59:44.028Z,12.77
2024-01-11T12:02:48.834Z,10.55
2024-01-11T12:05:51.574Z,9.55
2024-01-11T12:08:57.671Z,9.88
2024-01-11T12:12:11.075Z,9.17
2024-01-11T12:15:17.616Z,6.43
2024-01-11T12:18:20.214Z,8.35
2024-01-11T12:21:23.025Z,8.77
2024-01-11T12:24:25.628Z,8.27
2024-01-11T12:27:27.893Z,7.13
2024-01-11T12:30:32.988Z,5.57
2024-01-11T12:33:37.868Z,4.47
2024-01-11T12:36:40.636Z,4.95
2024-01-11T12:39:43.625Z,5.78
2024-01-11T12:42:46.364Z,7.73
2024-01-11T12:45:48.970Z,6.97
2024-01-11T12:48:52.191Z,8.05
2024-01-11T12:51:55.237Z,2.90
2024-01-11T12:55:01.262Z,5.85
2024-01-11T12:58:13.246Z,3.47
2024-01-11T13:01:15.775Z,4.22
2024-01-11T13:04:18.428Z,5.25
2024-01-11T13:07:24.441Z,5.65
2024-01-11T13:10:29.322Z,4.28
2024-01-11T13:13:31.801Z,2.97
2024-01-11T13:16:34.339Z,5.78
2024-01-11T13:19:37.056Z,7.30
2024-01-11T13:22:39.413Z,6.22
2024-01-11T13:25:46.434Z,5.80
2024-01-11T13:28:49.479Z,5.33
2024-01-11T13:31:52.116Z,5.53
2024-01-11T13:34:54.815Z,8.32
2024-01-11T13:37:57.403Z,5.90
2024-01-11T13:40:59.680Z,6.62
2024-01-11T13:44:02.185Z,5.40
2024-01-11T13:47:04.804Z,7.20
2024-01-11T13:50:07.464Z,4.15
2024-01-11T13:53:10.053Z,6.85
2024-01-11T13:56:12.822Z,8.68
2024-01-11T13:59:16.073Z,6.30
2024-01-11T14:02:18.472Z,7.10
2024-01-11T14:05:20.953Z,6.43
2024-01-11T14:08:23.718Z,8.45
2024-01-11T14:11:26.149Z,10.02
2024-01-11T14:14:28.749Z,6.33
2024-01-11T14:17:31.440Z,7.18
2024-01-11T14:20:35.713Z,7.80
2024-01-11T14:23:39.107Z,5.25
2024-01-11T14:26:42.149Z,7.53
2024-01-11T14:29:44.896Z,8.70
2024-01-11T14:32:47.618Z,8.85
2024-01-11T14:35:50.117Z,8.80
2024-01-11T14:38:52.957Z,6.85
2024-01-11T14:41:55.300Z,8.20
2024-01-11T14:44:57.773Z,6.93
2024-01-11T14:48:00.610Z,6.05
2024-01-11T14:51:04.161Z,7.55
2024-01-11T14:54:06.512Z,7.50
2024-01-11T14:57:09.578Z,9.27
2024-01-11T15:00:12.613Z,9.60
2024-01-11T15:03:17.023Z,8.60
2024-01-11T15:06:21.042Z,14.82
2024-01-11T15:09:24.482Z,5.43
2024-01-11T15:12:26.720Z,10.50
2024-01-11T15:15:29.171Z,10.70
2024-01-11T15:18:32.029Z,9.57
2024-01-11T15:21:37.435Z,9.68
2024-01-11T15:24:42.014Z,8.05
2024-01-11T15:27:44.560Z,11.38
2024-01-11T15:30:47.402Z,10.77
2024-01-11T15:33:50.253Z,10.70
2024-01-11T15:36:55.421Z,11.20
2024-01-11T15:39:58.057Z,11.15
2024-01-11T15:43:00.717Z,11.80
2024-01-11T15:46:04.201Z,11.13
2024-01-11T15:49:07.007Z,9.30
2024-01-11T15:52:10.070Z,10.32
2024-01-11T15:55:15.404Z,11.75
2024-01-11T15:58:18.096Z,11.63
2024-01-11T16:01:20.996Z,12.07
2024-01-11T16:04:24.263Z,14.15
2024-01-11T16:07:27.028Z,12.57
2024-01-11T16:10:29.782Z,14.43
2024-01-11T16:13:32.160Z,14.77
2024-01-11T16:16:35.090Z,13.93
2024-01-11T16:19:37.878Z,15.30
2024-01-11T16:22:40.725Z,14.15
2024-01-11T16:25:43.216Z,14.40
2024-01-11T16:28:45.498Z,17.48
2024-01-11T16:31:47.838Z,15.13
2024-01-11T16:34:51.296Z,20.65
2024-01-11T16:37:53.822Z,12.30
2024-01-11T16:40:56.118Z,6.75
2024-01-11T16:43:58.761Z,12.30
2024-01-11T16:47:01.150Z,13.50
2024-01-11T16:50:07.735Z,15.45
2024-01-11T16:53:10.204Z,16.30
2024-01-11T16:56:12.610Z,11.20
2024-01-11T16:59:16.671Z,11.13
2024-01-11T17:02:22.293Z,10.13
2024-01-11T17:05:25.842Z,9.57
2024-01-11T17:08:29.350Z,12.13
2024-01-11T17:11:32.940Z,9.18
2024-01-11T17:17:39.459Z,11.85
2024-01-11T17:20:43.499Z,11.88
2024-01-11T17:23:46.599Z,14.35
2024-01-11T17:26:49.867Z,11.87
2024-01-11T17:29:53.217Z,12.18
2024-01-11T17:32:56.829Z,11.73
2024-01-11T17:36:00.384Z,11.00
2024-01-11T17:39:07.763Z,10.87
2024-01-11T17:42:11.867Z,12.63
2024-01-11T17:45:15.314Z,15.13
2024-01-11T17:48:19.028Z,7.28
2024-01-11T17:51:22.102Z,17.63
2024-01-11T17:54:25.794Z,10.23
2024-01-11T17:57:29.234Z,12.45
2024-01-11T18:00:33.344Z,12.93
2024-01-11T18:03:36.398Z,14.85
2024-01-11T18:06:39.807Z,10.93
2024-01-11T18:09:43.104Z,11.35
2024-01-11T18:12:45.893Z,10.48
2024-01-11T18:15:50.505Z,12.95
2024-01-11T18:18:54.659Z,12.32
2024-01-11T18:21:58.499Z,13.27
2024-01-11T18:25:02.751Z,14.70
2024-01-11T18:28:08.209Z,9.73
2024-01-11T18:31:16.170Z,12.48
2024-01-11T18:34:21.687Z,9.40
2024-01-11T18:37:25.513Z,11.27
2024-01-11T18:40:28.226Z,14.38
2024-01-11T18:43:30.611Z,11.52
2024-01-11T18:46:34.473Z,10.03
2024-01-11T18:49:36.947Z,14.65
2024-01-11T18:52:40.234Z,10.95
2024-01-11T18:55:43.142Z,11.02
2024-01-11T18:58:46.221Z,11.53
2024-01-11T19:01:49.176Z,5.45
2024-01-11T19:04:52.757Z,10.23
2024-01-11T19:07:55.797Z,10.50
2024-01-11T19:11:00.821Z,7.97
2024-01-11T19:14:04.379Z,9.43
2024-01-11T19:17:07.713Z,9.57
2024-01-11T19:20:10.904Z,12.90
2024-01-11T19:23:15.438Z,9.50
2024-01-11T19:26:20.137Z,6.07
2024-01-11T19:29:26.384Z,12.20
2024-01-11T19:32:30.596Z,10.48
2024-01-11T19:35:35.554Z,12.80
2024-01-11T19:38:40.888Z,13.48
2024-01-11T19:41:47.050Z,9.50
2024-01-11T19:44:52.662Z,14.93
2024-01-11T19:47:58.429Z,5.90
2024-01-11T19:51:04.187Z,10.30
2024-01-11T19:54:09.737Z,14.52
2024-01-11T19:57:12.727Z,14.52
2024-01-11T20:00:16.780Z,11.50
2024-01-11T20:03:21.528Z,12.02
2024-01-11T20:06:25.892Z,13.23
2024-01-11T20:09:28.371Z,12.85
2024-01-11T20:12:31.729Z,13.32
2024-01-11T20:15:34.466Z,11.27
2024-01-11T20:18:37.614Z,11.63
2024-01-11T20:21:40.450Z,11.55
2024-01-11T20:24:43.372Z,14.93
2024-01-11T20:27:56.022Z,6.00
2024-01-11T20:30:58.942Z,6.70
2024-01-11T20:34:03.479Z,14.82
2024-01-11T20:37:09.614Z,11.27
2024-01-11T20:40:15.512Z,12.77
2024-01-11T20:43:24.434Z,12.43
2024-01-11T20:46:32.067Z,11.07
2024-01-11T20:49:35.034Z,14.13
2024-01-11T20:52:37.563Z,17.80
2024-01-11T20:55:39.927Z,13.02
2024-01-11T20:58:45.612Z,14.38
2024-01-11T21:01:49.502Z,12.47
2024-01-11T21:04:52.444Z,13.32
2024-01-11T21:07:54.852Z,10.73
2024-01-11T21:10:58.198Z,14.45
2024-01-11T21:14:00.580Z,13.60
2024-01-11T21:17:03.583Z,14.18
2024-01-11T21:20:06.644Z,18.35
2024-01-11T21:23:09.123Z,19.83
2024-01-11T21:26:11.680Z,15.33
2024-01-11T21:29:14.571Z,10.93
2024-01-11T21:32:16.942Z,9.85
2024-01-11T21:35:19.838Z,20.83
2024-01-11T21:38:22.499Z,17.93
2024-01-11T21:41:27.392Z,15.32
2024-01-11T21:44:31.149Z,19.75
2024-01-11T21:47:34.530Z,7.78
2024-01-11T21:50:37.577Z,8.90
2024-01-11T21:53:40.209Z,20.30
2024-01-11T21:56:43.227Z,17.30
2024-01-11T21:59:45.994Z,16.08
2024-01-11T22:02:48.544Z,10.47
2024-01-11T22:05:52.837Z,12.43
2024-01-11T22:08:59.474Z,20.27
2024-01-11T22:12:02.809Z,16.23
2024-01-11T22:15:08.665Z,18.73
2024-01-11T22:18:11.726Z,14.25
2024-01-11T22:21:15.071Z,6.80
2024-01-11T22:24:18.003Z,15.23
2024-01-11T22:27:22.712Z,13.65
2024-01-11T22:30:25.799Z,20.02
2024-01-11T22:33:28.714Z,14.80
2024-01-11T22:36:31.331Z,6.50
2024-01-11T22:39:34.197Z,17.87
2024-01-11T22:42:37.078Z,17.85
2024-01-11T22:45:39.734Z,19.60
2024-01-11T22:48:43.128Z,13.60
2024-01-11T22:51:45.972Z,19.93
2024-01-11T22:54:48.504Z,18.30
2024-01-11T22:57:50.924Z,20.40
2024-01-11T23:00:54.299Z,12.43
2024-01-11T23:03:58.057Z,14.30
2024-01-11T23:07:01.213Z,14.33
2024-01-11T23:10:03.853Z,19.12
2024-01-11T23:13:06.191Z,18.67
2024-01-11T23:16:09.191Z,11.70
2024-01-11T23:19:12.075Z,17.75
2024-01-11T23:22:14.838Z,18.83
2024-01-11T23:25:17.431Z,15.15
2024-01-11T23:28:21.210Z,18.60
2024-01-11T23:31:26.848Z,19.65
2024-01-11T23:34:30.127Z,20.27
2024-01-11T23:37:32.479Z,17.08
2024-01-11T23:40:34.649Z,17.67
2024-01-11T23:43:37.822Z,18.27
2024-01-11T23:46:40.571Z,19.63
2024-01-11T23:49:45.413Z,17.15
2024-01-11T23:52:48.497Z,20.65
2024-01-11T23:55:51.681Z,17.00
2024-01-11T23:58:56.308Z,19.40
